createdAt,value
2018-05-09T00:01:39.337Z,17.00
2018-05-09T00:04:05.560Z,17.00
2018-05-09T00:06:32.447Z,16.80
2018-05-09T00:08:58.672Z,16.80
2018-05-09T00:11:24.834Z,16.70
2018-05-09T00:13:51.032Z,16.80
2018-05-09T00:16:17.193Z,16.70
2018-05-09T00:18:44.066Z,16.60
2018-05-09T00:21:10.299Z,16.60
2018-05-09T00:23:36.476Z,16.50
2018-05-09T00:26:02.677Z,16.50
2018-05-09T00:28:28.862Z,16.50
2018-05-09T00:30:55.128Z,16.40
2018-05-09T00:33:21.346Z,16.40
2018-05-09T00:35:47.572Z,16.20
2018-05-09T00:38:13.719Z,16.20
2018-05-09T00:40:39.878Z,16.10
2018-05-09T00:43:06.034Z,16.10
2018-05-09T00:45:32.218Z,15.90
2018-05-09T00:47:58.405Z,15.90
2018-05-09T00:50:24.630Z,15.80
2018-05-09T00:52:50.801Z,15.80
2018-05-09T00:55:17.111Z,15.70
2018-05-09T00:57:43.241Z,15.80
2018-05-09T01:00:09.445Z,15.60
2018-05-09T01:02:35.655Z,15.50
2018-05-09T01:05:01.882Z,15.50
2018-05-09T01:07:28.079Z,15.40
2018-05-09T01:09:54.926Z,15.20
2018-05-09T01:12:21.075Z,15.20
2018-05-09T01:14:48.013Z,15.10
2018-05-09T01:17:15.013Z,15.00
2018-05-09T01:19:41.233Z,15.00
2018-05-09T01:22:07.401Z,15.00
2018-05-09T01:24:33.573Z,14.90
2018-05-09T01:26:59.770Z,14.90
2018-05-09T01:29:26.759Z,14.80
2018-05-09T01:31:52.897Z,14.80
2018-05-09T01:34:19.115Z,14.80
2018-05-09T01:36:45.283Z,14.80
2018-05-09T01:39:11.458Z,14.90
2018-05-09T01:41:37.665Z,14.90
2018-05-09T01:44:03.869Z,14.80
2018-05-09T01:46:30.850Z,14.80
2018-05-09T01:48:57.038Z,14.70
2018-05-09T01:51:23.227Z,14.70
2018-05-09T01:53:49.398Z,14.70
2018-05-09T01:56:16.315Z,14.60
2018-05-09T01:58:42.536Z,14.60
2018-05-09T02:01:08.689Z,14.70
2018-05-09T02:03:34.901Z,14.50
2018-05-09T02:06:01.198Z,14.50
2018-05-09T02:08:27.366Z,14.50
2018-05-09T02:10:53.539Z,14.50
2018-05-09T02:13:19.742Z,14.50
2018-05-09T02:15:46.691Z,14.30
2018-05-09T02:18:13.635Z,14.40
2018-05-09T02:20:40.568Z,14.50
2018-05-09T02:23:06.709Z,14.40
2018-05-09T02:25:32.861Z,14.50
2018-05-09T02:27:59.024Z,14.50
2018-05-09T02:30:25.211Z,14.40
2018-05-09T02:32:51.399Z,14.30
2018-05-09T02:35:17.672Z,14.20
2018-05-09T02:37:43.765Z,14.30
2018-05-09T02:40:10.709Z,14.50
2018-05-09T02:42:37.593Z,14.50
2018-05-09T02:45:03.827Z,14.50
2018-05-09T02:47:30.015Z,14.40
2018-05-09T02:49:56.935Z,14.80
2018-05-09T02:52:23.206Z,14.70
2018-05-09T02:54:49.362Z,14.90
2018-05-09T02:57:15.585Z,14.80
2018-05-09T02:59:41.809Z,14.90
2018-05-09T03:02:08.083Z,14.90
2018-05-09T03:04:34.282Z,15.00
2018-05-09T03:07:00.458Z,15.00
2018-05-09T03:09:27.442Z,15.20
2018-05-09T03:11:53.581Z,15.10
2018-05-09T03:14:19.773Z,15.30
2018-05-09T03:16:45.976Z,15.50
2018-05-09T03:19:13.063Z,15.80
2018-05-09T03:21:39.228Z,15.80
2018-05-09T03:24:06.191Z,15.80
2018-05-09T03:26:33.147Z,15.70
2018-05-09T03:29:00.077Z,15.70
2018-05-09T03:31:26.297Z,15.70
2018-05-09T03:33:52.462Z,15.60
2018-05-09T03:36:18.627Z,15.10
2018-05-09T03:38:44.783Z,14.60
2018-05-09T03:41:10.943Z,14.30
2018-05-09T03:43:37.140Z,14.20
2018-05-09T03:46:03.373Z,14.30
2018-05-09T03:48:30.313Z,14.20
2018-05-09T03:50:56.536Z,14.20
2018-05-09T03:53:22.816Z,14.40
2018-05-09T03:55:48.949Z,14.50
2018-05-09T03:58:15.189Z,14.60
2018-05-09T04:00:41.365Z,14.70
2018-05-09T04:03:20.590Z,14.70
2018-05-09T04:05:59.774Z,14.70
2018-05-09T04:08:38.197Z,14.70
2018-05-09T04:11:04.436Z,14.70
2018-05-09T04:13:30.633Z,14.80
2018-05-09T04:15:56.856Z,14.70
2018-05-09T04:18:23.015Z,14.60
2018-05-09T04:20:49.191Z,14.70
2018-05-09T04:23:15.432Z,14.70
2018-05-09T04:25:41.576Z,14.60
2018-05-09T04:28:07.832Z,14.50
2018-05-09T04:30:33.939Z,14.60
2018-05-09T04:33:00.134Z,14.70
2018-05-09T04:35:26.361Z,14.80
2018-05-09T04:37:53.312Z,14.80
2018-05-09T04:40:19.519Z,14.80
2018-05-09T04:43:01.886Z,14.80
2018-05-09T04:45:29.382Z,14.80
2018-05-09T04:47:56.379Z,14.80
2018-05-09T04:50:22.540Z,14.80
2018-05-09T04:52:48.789Z,14.80
2018-05-09T04:55:15.766Z,14.80
2018-05-09T04:57:41.924Z,14.80
2018-05-09T05:00:08.188Z,14.80
2018-05-09T05:02:35.148Z,14.90
2018-05-09T05:05:02.052Z,15.00
2018-05-09T05:07:28.227Z,15.00
2018-05-09T05:09:54.431Z,15.10
2018-05-09T05:12:46.689Z,15.10
2018-05-09T05:15:13.609Z,15.30
2018-05-09T05:17:40.518Z,15.30
2018-05-09T05:20:06.741Z,15.30
2018-05-09T05:22:32.977Z,15.40
2018-05-09T05:24:59.232Z,15.60
2018-05-09T05:27:26.204Z,15.70
2018-05-09T05:29:53.102Z,15.70
2018-05-09T05:32:19.293Z,15.60
2018-05-09T05:34:45.513Z,15.80
2018-05-09T05:37:11.659Z,15.90
2018-05-09T05:39:37.886Z,16.00
2018-05-09T05:42:04.105Z,16.30
2018-05-09T05:44:30.268Z,16.50
2018-05-09T05:46:56.517Z,16.80
2018-05-09T05:49:22.736Z,16.90
2018-05-09T05:51:48.933Z,17.20
2018-05-09T05:54:15.102Z,17.50
2018-05-09T05:56:41.313Z,17.50
2018-05-09T05:59:07.520Z,17.50
2018-05-09T06:01:33.775Z,17.60
2018-05-09T06:04:00.033Z,17.70
2018-05-09T06:06:27.032Z,17.90
2018-05-09T06:08:53.183Z,17.90
2018-05-09T06:11:19.339Z,17.90
2018-05-09T06:13:46.285Z,17.90
2018-05-09T06:16:12.557Z,17.90
2018-05-09T06:18:38.715Z,18.10
2018-05-09T06:21:04.913Z,18.00
2018-05-09T06:23:31.134Z,18.30
2018-05-09T06:25:57.340Z,18.30
2018-05-09T06:28:23.531Z,18.40
2018-05-09T06:30:49.726Z,18.50
2018-05-09T06:33:15.848Z,18.70
2018-05-09T06:35:42.031Z,18.70
2018-05-09T06:38:08.925Z,18.80
2018-05-09T06:40:35.084Z,18.80
2018-05-09T06:43:01.259Z,18.90
2018-05-09T06:45:27.470Z,19.00
2018-05-09T06:47:53.714Z,19.00
2018-05-09T06:50:19.934Z,19.00
2018-05-09T06:52:46.103Z,19.20
2018-05-09T06:55:12.236Z,19.30
2018-05-09T06:57:38.465Z,19.40
2018-05-09T07:00:04.844Z,19.40
2018-05-09T07:02:30.886Z,19.30
2018-05-09T07:04:57.047Z,19.20
2018-05-09T07:07:23.242Z,19.50
2018-05-09T07:09:49.428Z,19.80
2018-05-09T07:12:16.363Z,19.70
2018-05-09T07:14:43.267Z,19.90
2018-05-09T07:17:09.737Z,19.80
2018-05-09T07:19:35.934Z,20.00
2018-05-09T07:22:02.157Z,20.10
2018-05-09T07:24:28.389Z,20.30
2018-05-09T07:26:54.600Z,20.30
2018-05-09T07:29:20.845Z,20.40
2018-05-09T07:31:46.992Z,20.70
2018-05-09T07:34:13.953Z,20.80
2018-05-09T07:36:40.887Z,20.50
2018-05-09T07:39:07.040Z,20.50
2018-05-09T07:41:33.912Z,20.80
2018-05-09T07:44:00.142Z,20.70
2018-05-09T07:46:26.272Z,20.80
2018-05-09T07:48:52.462Z,21.10
2018-05-09T07:51:19.418Z,21.30
2018-05-09T07:53:46.365Z,21.40
2018-05-09T07:56:12.584Z,21.40
2018-05-09T07:58:39.655Z,21.80
2018-05-09T08:01:05.805Z,21.80
2018-05-09T08:03:32.009Z,21.90
2018-05-09T08:05:58.293Z,21.70
2018-05-09T08:08:24.449Z,21.60
2018-05-09T08:10:50.594Z,21.60
2018-05-09T08:13:16.779Z,21.80
2018-05-09T08:15:42.916Z,21.90
2018-05-09T08:18:09.897Z,22.00
2018-05-09T08:20:36.060Z,22.00
2018-05-09T08:23:02.277Z,22.10
2018-05-09T08:25:28.448Z,22.40
2018-05-09T08:27:55.464Z,22.10
2018-05-09T08:30:21.675Z,22.10
2018-05-09T08:32:47.962Z,22.00
2018-05-09T08:35:14.215Z,22.30
2018-05-09T08:37:40.486Z,22.40
2018-05-09T08:40:06.814Z,22.70
2018-05-09T08:42:32.991Z,23.00
2018-05-09T08:44:59.235Z,23.00
2018-05-09T08:47:25.448Z,23.00
2018-05-09T08:49:51.638Z,22.70
2018-05-09T08:52:17.830Z,22.60
2018-05-09T08:54:44.014Z,22.70
2018-05-09T08:57:10.948Z,23.30
2018-05-09T08:59:37.910Z,23.30
2018-05-09T09:02:04.082Z,23.20
2018-05-09T09:04:30.287Z,23.60
2018-05-09T09:06:56.447Z,23.70
2018-05-09T09:09:29.554Z,23.80
2018-05-09T09:11:56.484Z,23.60
2018-05-09T09:14:22.659Z,23.60
2018-05-09T09:16:48.802Z,23.40
2018-05-09T09:19:14.905Z,23.50
2018-05-09T09:21:41.136Z,23.80
2018-05-09T09:24:07.275Z,23.80
2018-05-09T09:26:33.446Z,23.70
2018-05-09T09:28:59.625Z,24.10
2018-05-09T09:31:25.854Z,24.20
2018-05-09T09:33:52.064Z,24.00
2018-05-09T09:36:18.230Z,24.00
2018-05-09T09:38:44.473Z,24.30
2018-05-09T09:41:10.708Z,24.20
2018-05-09T09:43:37.694Z,24.10
2018-05-09T09:46:03.852Z,24.10
2018-05-09T09:48:30.011Z,24.10
2018-05-09T09:50:56.196Z,24.20
2018-05-09T09:53:22.415Z,24.40
2018-05-09T09:55:48.648Z,24.60
2018-05-09T09:58:14.840Z,24.70
2018-05-09T10:00:41.747Z,25.00
2018-05-09T10:03:07.941Z,25.00
2018-05-09T10:05:34.149Z,24.90
2018-05-09T10:08:01.161Z,25.20
2018-05-09T10:10:27.387Z,25.20
2018-05-09T10:12:53.549Z,25.50
2018-05-09T10:15:20.425Z,25.50
2018-05-09T10:17:46.586Z,25.50
2018-05-09T10:20:12.822Z,24.80
2018-05-09T10:22:39.049Z,24.50
2018-05-09T10:25:05.326Z,24.10
2018-05-09T10:27:31.553Z,24.00
2018-05-09T10:29:57.756Z,23.90
2018-05-09T10:32:24.706Z,24.00
2018-05-09T10:34:51.700Z,24.10
2018-05-09T10:37:17.843Z,24.10
2018-05-09T10:39:44.161Z,24.00
2018-05-09T10:42:10.287Z,24.30
2018-05-09T10:44:36.424Z,24.60
2018-05-09T10:47:02.753Z,25.10
2018-05-09T10:49:29.595Z,24.80
2018-05-09T10:51:55.748Z,24.80
2018-05-09T10:54:22.006Z,24.90
2018-05-09T10:56:48.180Z,24.80
2018-05-09T10:59:14.432Z,25.00
2018-05-09T11:01:41.402Z,25.50
2018-05-09T11:04:07.589Z,25.50
2018-05-09T11:06:33.842Z,25.90
2018-05-09T11:09:00.874Z,26.00
2018-05-09T11:11:27.724Z,25.80
2018-05-09T11:13:53.945Z,25.80
2018-05-09T11:16:20.165Z,25.90
2018-05-09T11:18:46.379Z,25.70
2018-05-09T11:21:12.601Z,25.10
2018-05-09T11:23:38.790Z,24.60
2018-05-09T11:26:06.794Z,24.30
2018-05-09T11:28:33.047Z,24.20
2018-05-09T11:30:59.221Z,24.30
2018-05-09T11:33:25.377Z,24.50
2018-05-09T11:35:51.591Z,24.50
2018-05-09T11:38:17.769Z,24.40
2018-05-09T11:40:43.965Z,24.50
2018-05-09T11:43:10.234Z,24.50
2018-05-09T11:45:36.453Z,24.60
2018-05-09T11:48:02.693Z,24.60
2018-05-09T11:50:29.640Z,25.20
2018-05-09T11:52:56.560Z,25.70
2018-05-09T11:55:22.829Z,25.60
2018-05-09T11:57:49.073Z,25.90
2018-05-09T12:00:15.312Z,25.90
2018-05-09T12:02:41.549Z,25.60
2018-05-09T12:05:07.803Z,25.60
2018-05-09T12:07:33.998Z,25.90
2018-05-09T12:10:00.222Z,25.90
2018-05-09T12:12:26.446Z,26.40
2018-05-09T12:14:52.605Z,26.90
2018-05-09T12:17:18.819Z,27.40
2018-05-09T12:19:44.990Z,27.40
2018-05-09T12:22:11.908Z,27.20
2018-05-09T12:24:38.232Z,27.20
2018-05-09T12:27:05.170Z,26.40
2018-05-09T12:29:31.348Z,26.40
2018-05-09T12:31:58.224Z,25.60
2018-05-09T12:34:24.486Z,25.60
2018-05-09T12:36:50.702Z,25.50
2018-05-09T12:39:16.999Z,25.50
2018-05-09T12:41:43.165Z,25.20
2018-05-09T12:44:09.419Z,25.10
2018-05-09T12:46:35.677Z,25.00
2018-05-09T12:49:01.922Z,24.90
2018-05-09T12:51:28.155Z,24.90
2018-05-09T12:53:54.346Z,25.10
2018-05-09T12:56:22.786Z,25.30
2018-05-09T12:58:49.063Z,25.30
2018-05-09T13:01:16.070Z,25.90
2018-05-09T13:03:43.017Z,25.70
2018-05-09T13:06:13.188Z,25.70
2018-05-09T13:08:39.398Z,25.80
2018-05-09T13:11:06.441Z,26.50
2018-05-09T13:13:33.850Z,26.60
2018-05-09T13:16:01.162Z,26.60
2018-05-09T13:18:28.105Z,26.90
2018-05-09T13:20:55.019Z,26.50
2018-05-09T13:23:21.229Z,26.40
2018-05-09T13:25:47.469Z,26.40
2018-05-09T13:28:13.682Z,26.10
2018-05-09T13:30:40.890Z,26.20
2018-05-09T13:33:07.836Z,27.20
2018-05-09T13:35:34.072Z,27.10
2018-05-09T13:38:00.267Z,26.70
2018-05-09T13:40:26.432Z,26.20
2018-05-09T13:42:52.562Z,25.90
2018-05-09T13:45:18.753Z,25.50
2018-05-09T13:47:45.628Z,25.30
2018-05-09T13:50:11.839Z,25.30
2018-05-09T13:52:38.795Z,26.60
2018-05-09T13:55:05.032Z,26.60
2018-05-09T13:57:31.225Z,27.20
2018-05-09T13:59:58.149Z,27.50
2018-05-09T14:02:24.318Z,27.50
2018-05-09T14:04:50.532Z,27.50
2018-05-09T14:07:17.452Z,27.60
2018-05-09T14:09:43.679Z,27.60
2018-05-09T14:12:10.587Z,27.10
2018-05-09T14:14:36.790Z,27.10
2018-05-09T14:17:02.990Z,27.10
2018-05-09T14:19:29.210Z,26.70
2018-05-09T14:21:56.146Z,26.80
2018-05-09T14:24:22.306Z,26.70
2018-05-09T14:26:49.224Z,27.10
2018-05-09T14:29:15.433Z,27.10
2018-05-09T14:31:41.627Z,27.00
2018-05-09T14:34:07.750Z,26.80
2018-05-09T14:36:33.994Z,26.70
2018-05-09T14:39:00.241Z,26.60
2018-05-09T14:41:26.448Z,26.40
2018-05-09T14:43:52.685Z,26.30
2018-05-09T14:46:18.910Z,26.30
2018-05-09T14:48:45.085Z,26.30
2018-05-09T14:51:11.988Z,25.90
2018-05-09T14:53:38.204Z,25.90
2018-05-09T14:56:04.388Z,25.90
2018-05-09T14:58:30.569Z,25.90
2018-05-09T15:00:56.762Z,25.60
2018-05-09T15:03:23.656Z,25.40
2018-05-09T15:05:49.844Z,25.40
2018-05-09T15:08:16.035Z,25.30
2018-05-09T15:10:42.226Z,24.50
2018-05-09T15:13:08.413Z,24.10
2018-05-09T15:15:35.327Z,23.80
2018-05-09T15:18:01.563Z,23.80
2018-05-09T15:20:27.770Z,23.90
2018-05-09T15:22:54.540Z,23.80
2018-05-09T15:25:21.553Z,24.10
2018-05-09T15:27:47.671Z,24.10
2018-05-09T15:30:13.901Z,24.00
2018-05-09T15:32:40.125Z,24.00
2018-05-09T15:35:06.281Z,24.00
2018-05-09T15:37:32.448Z,23.90
2018-05-09T15:39:58.693Z,24.10
2018-05-09T15:42:24.898Z,24.20
2018-05-09T15:44:52.533Z,24.40
2018-05-09T15:47:18.665Z,24.30
2018-05-09T15:49:44.853Z,24.50
2018-05-09T15:52:11.054Z,24.50
2018-05-09T15:54:37.241Z,24.70
2018-05-09T15:57:03.457Z,24.50
2018-05-09T15:59:30.385Z,24.80
2018-05-09T16:01:56.537Z,24.80
2018-05-09T16:04:22.723Z,24.90
2018-05-09T16:06:48.932Z,24.90
2018-05-09T16:09:15.167Z,24.90
2018-05-09T16:11:41.430Z,24.80
2018-05-09T16:14:07.608Z,24.80
2018-05-09T16:16:33.819Z,24.60
2018-05-09T16:19:00.739Z,24.50
2018-05-09T16:21:26.917Z,24.40
2018-05-09T16:23:53.069Z,24.40
2018-05-09T16:26:19.216Z,24.50
2018-05-09T16:28:45.379Z,24.30
2018-05-09T16:31:12.369Z,24.50
2018-05-09T16:33:38.586Z,24.50
2018-05-09T16:36:04.832Z,24.50
2018-05-09T16:38:31.019Z,24.40
2018-05-09T16:40:58.004Z,24.30
2018-05-09T16:43:24.213Z,24.30
2018-05-09T16:45:50.443Z,24.30
2018-05-09T16:48:16.657Z,24.50
2018-05-09T16:50:42.870Z,24.30
2018-05-09T16:53:09.800Z,24.30
2018-05-09T16:55:35.953Z,24.30
2018-05-09T16:58:02.905Z,23.90
2018-05-09T17:00:29.124Z,23.90
2018-05-09T17:02:56.043Z,23.70
2018-05-09T17:05:22.275Z,23.70
2018-05-09T17:07:48.438Z,23.40
2018-05-09T17:10:14.619Z,23.20
2018-05-09T17:12:40.803Z,23.00
2018-05-09T17:15:07.001Z,22.70
2018-05-09T17:17:33.176Z,22.60
2018-05-09T17:19:59.423Z,22.50
2018-05-09T17:22:32.588Z,22.50
2018-05-09T17:24:58.803Z,22.40
2018-05-09T17:27:24.955Z,22.10
2018-05-09T17:29:51.235Z,21.70
2018-05-09T17:32:18.191Z,21.40
2018-05-09T17:34:44.463Z,21.40
2018-05-09T17:37:10.653Z,21.40
2018-05-09T17:39:36.822Z,21.50
2018-05-09T17:42:03.106Z,21.50
2018-05-09T17:44:29.345Z,21.40
2018-05-09T17:46:55.562Z,21.50
2018-05-09T17:49:21.702Z,21.20
2018-05-09T17:51:47.896Z,21.10
2018-05-09T17:54:14.038Z,21.20
2018-05-09T17:56:40.278Z,21.30
2018-05-09T17:59:06.497Z,21.10
2018-05-09T18:01:32.721Z,21.10
2018-05-09T18:03:59.686Z,20.90
2018-05-09T18:06:26.648Z,20.90
2018-05-09T18:08:52.897Z,20.90
2018-05-09T18:11:19.118Z,20.90
2018-05-09T18:13:45.311Z,20.70
2018-05-09T18:16:11.510Z,20.70
2018-05-09T18:18:38.449Z,20.40
2018-05-09T18:21:04.685Z,20.40
2018-05-09T18:23:31.593Z,20.60
2018-05-09T18:25:57.722Z,20.50
2018-05-09T18:28:23.931Z,20.50
2018-05-09T18:30:50.140Z,20.30
2018-05-09T18:33:16.321Z,20.20
2018-05-09T18:35:42.520Z,20.10
2018-05-09T18:38:08.709Z,20.20
2018-05-09T18:40:34.945Z,20.20
2018-05-09T18:43:01.146Z,20.10
2018-05-09T18:45:28.120Z,19.90
2018-05-09T18:47:54.322Z,19.90
2018-05-09T18:50:21.283Z,19.70
2018-05-09T18:52:47.495Z,19.70
2018-05-09T18:55:14.450Z,20.00
2018-05-09T18:57:40.634Z,20.00
2018-05-09T19:00:06.850Z,20.00
2018-05-09T19:02:33.049Z,19.90
2018-05-09T19:04:59.310Z,19.90
2018-05-09T19:07:25.518Z,20.00
2018-05-09T19:09:51.724Z,20.10
2018-05-09T19:12:18.014Z,20.00
2018-05-09T19:14:44.204Z,19.90
2018-05-09T19:17:10.408Z,19.90
2018-05-09T19:19:37.349Z,19.90
2018-05-09T19:22:03.655Z,19.90
2018-05-09T19:24:30.578Z,19.80
2018-05-09T19:26:56.718Z,19.80
2018-05-09T19:29:22.887Z,19.80
2018-05-09T19:31:49.059Z,19.90
2018-05-09T19:34:15.258Z,19.80
2018-05-09T19:36:41.448Z,19.80
2018-05-09T19:39:08.543Z,19.80
2018-05-09T19:41:34.953Z,19.80
2018-05-09T19:44:02.193Z,19.70
2018-05-09T19:46:28.921Z,19.60
2018-05-09T19:48:55.221Z,19.60
2018-05-09T19:51:21.604Z,19.60
2018-05-09T19:53:47.840Z,19.30
2018-05-09T19:56:14.001Z,19.30
2018-05-09T19:58:40.262Z,19.20
2018-05-09T20:01:06.688Z,19.00
2018-05-09T20:03:32.908Z,19.00
2018-05-09T20:05:59.131Z,18.90
2018-05-09T20:08:25.334Z,18.80
2018-05-09T20:10:51.484Z,18.80
2018-05-09T20:13:17.669Z,18.70
2018-05-09T20:15:43.889Z,18.70
2018-05-09T20:18:10.102Z,18.60
2018-05-09T20:20:37.019Z,18.50
2018-05-09T20:23:03.172Z,18.50
2018-05-09T20:25:30.153Z,18.60
2018-05-09T20:27:56.335Z,18.60
2018-05-09T20:30:28.602Z,18.70
2018-05-09T20:32:55.542Z,18.30
2018-05-09T20:35:21.779Z,18.30
2018-05-09T20:37:48.866Z,18.10
2018-05-09T20:40:15.261Z,18.00
2018-05-09T20:42:42.269Z,18.20
2018-05-09T20:45:08.492Z,18.20
2018-05-09T20:47:34.775Z,18.20
2018-05-09T20:50:01.891Z,17.90
2018-05-09T20:52:28.230Z,17.80
2018-05-09T20:54:54.532Z,17.80
2018-05-09T20:57:20.843Z,17.80
2018-05-09T20:59:47.128Z,17.80
2018-05-09T21:02:13.425Z,17.80
2018-05-09T21:04:39.718Z,17.70
2018-05-09T21:07:06.131Z,17.60
2018-05-09T21:09:33.251Z,17.70
2018-05-09T21:12:08.570Z,17.60
2018-05-09T21:14:35.039Z,17.50
2018-05-09T21:17:01.280Z,17.60
2018-05-09T21:19:28.341Z,17.50
2018-05-09T21:21:54.567Z,17.50
2018-05-09T21:24:21.691Z,17.20
2018-05-09T21:26:47.988Z,17.20
2018-05-09T21:29:14.272Z,17.10
2018-05-09T21:31:41.215Z,17.20
2018-05-09T21:34:08.270Z,17.30
2018-05-09T21:36:35.315Z,17.00
2018-05-09T21:39:02.422Z,16.80
2018-05-09T21:41:28.763Z,16.80
2018-05-09T21:43:55.006Z,16.80
2018-05-09T21:46:21.322Z,16.50
2018-05-09T21:48:47.526Z,16.50
2018-05-09T21:51:13.818Z,16.50
2018-05-09T21:53:40.077Z,16.50
2018-05-09T21:56:06.412Z,16.40
2018-05-09T21:58:32.667Z,16.30
2018-05-09T22:00:58.983Z,16.20
2018-05-09T22:03:25.350Z,16.20
2018-05-09T22:05:51.694Z,16.40
2018-05-09T22:08:18.794Z,16.30
2018-05-09T22:10:45.097Z,16.30
2018-05-09T22:13:11.397Z,16.30
2018-05-09T22:15:38.413Z,16.20
2018-05-09T22:18:04.768Z,16.10
2018-05-09T22:20:31.772Z,15.80
2018-05-09T22:22:58.050Z,15.80
2018-05-09T22:25:25.136Z,15.60
2018-05-09T22:27:51.464Z,15.60
2018-05-09T22:30:17.716Z,15.60
2018-05-09T22:32:44.016Z,15.70
2018-05-09T22:35:10.371Z,15.60
2018-05-09T22:37:36.733Z,15.70
2018-05-09T22:40:02.983Z,15.60
2018-05-09T22:42:30.003Z,15.60
2018-05-09T22:44:56.293Z,15.60
2018-05-09T22:47:22.475Z,15.60
2018-05-09T22:49:48.716Z,15.40
2018-05-09T22:52:15.675Z,15.20
2018-05-09T22:54:42.052Z,15.20
2018-05-09T22:57:08.400Z,15.30
2018-05-09T22:59:34.656Z,15.30
2018-05-09T23:02:01.729Z,15.30
2018-05-09T23:04:27.940Z,15.30
2018-05-09T23:06:54.978Z,15.10
2018-05-09T23:09:21.995Z,15.00
2018-05-09T23:11:49.242Z,15.00
2018-05-09T23:14:15.558Z,14.90
2018-05-09T23:16:41.839Z,14.80
2018-05-09T23:19:08.875Z,14.50
2018-05-09T23:21:35.880Z,14.40
2018-05-09T23:24:02.060Z,14.40
2018-05-09T23:26:28.999Z,14.40
2018-05-09T23:28:56.007Z,14.40
2018-05-09T23:31:22.270Z,14.40
2018-05-09T23:33:49.289Z,14.20
2018-05-09T23:36:15.572Z,14.30
2018-05-09T23:38:41.784Z,14.20
2018-05-09T23:41:08.887Z,14.20
2018-05-09T23:43:35.120Z,14.20
2018-05-09T23:46:01.404Z,14.10
2018-05-09T23:48:28.459Z,14.30
2018-05-09T23:50:54.782Z,14.30
2018-05-09T23:53:21.053Z,14.30
2018-05-09T23:55:47.371Z,14.40
2018-05-09T23:58:13.658Z,14.40
